CSW891 LCLK-LSZH
Flight info
| Callsign | CSW891 |
|---|---|
| Flight time | N/A |
| Altitude | 34000 |
| Route | PHA1W PHA M31 GENOS DCT PEDER DCT EVENO DCT BENEM UN127 RIKSO DCT FSK UL608 DISOR DCT LONTA UL608 DOLEV DCT DEVUL DCT GORPA DCT ERKIR DCT KPT L856 NEGRA NEGRA2A |
| Aircraft | A320/M-SDE3FGHIRWY/LB1 |
Departure
| Time | 2026-05-01 15:31 |
|---|---|
| Airport | Larnaca International Airport (LCLK) |
Arrival
| Time | N/A |
|---|---|
| Airport | Zürich Airport (LSZH) |
| Time | Latitude | Longitude | Altitude | Speed | Heading |
|---|---|---|---|---|---|
| 2026-05-01 14:55 | 34.86983 | 33.61094 | 22 ft | 0 kts | 225° |
| 2026-05-01 15:21 | 34.86995 | 33.61108 | 20 ft | 4 kts | 225° |
| 2026-05-01 15:21 | 34.87014 | 33.61131 | 20 ft | 4 kts | 225° |
| 2026-05-01 15:21 | 34.87034 | 33.61153 | 21 ft | 4 kts | 208° |
| 2026-05-01 15:22 | 34.87068 | 33.61152 | 21 ft | 0 kts | 135° |
| 2026-05-01 15:24 | 34.87040 | 33.61185 | 20 ft | 13 kts | 135° |
| 2026-05-01 15:24 | 34.86960 | 33.61282 | 20 ft | 17 kts | 135° |
| 2026-05-01 15:25 | 34.86967 | 33.61391 | 20 ft | 15 kts | 43° |
| 2026-05-01 15:25 | 34.87034 | 33.61474 | 22 ft | 13 kts | 45° |
| 2026-05-01 15:25 | 34.87092 | 33.61546 | 20 ft | 11 kts | 45° |
| 2026-05-01 15:25 | 34.87151 | 33.61619 | 20 ft | 16 kts | 45° |
| 2026-05-01 15:26 | 34.87256 | 33.61750 | 20 ft | 26 kts | 45° |
| 2026-05-01 15:26 | 34.87392 | 33.61915 | 20 ft | 28 kts | 45° |
| 2026-05-01 15:26 | 34.87516 | 33.62077 | 20 ft | 19 kts | 71° |
| 2026-05-01 15:26 | 34.87515 | 33.62205 | 21 ft | 15 kts | 54° |
| 2026-05-01 15:27 | 34.87600 | 33.62308 | 21 ft | 21 kts | 44° |
| 2026-05-01 15:27 | 34.87716 | 33.62448 | 20 ft | 25 kts | 45° |
| 2026-05-01 15:27 | 34.87831 | 33.62589 | 20 ft | 22 kts | 45° |
| 2026-05-01 15:28 | 34.88024 | 33.62827 | 20 ft | 17 kts | 45° |
| 2026-05-01 15:28 | 34.88106 | 33.62928 | 20 ft | 17 kts | 45° |
| 2026-05-01 15:28 | 34.88196 | 33.63038 | 20 ft | 22 kts | 45° |
| 2026-05-01 15:29 | 34.88402 | 33.63292 | 20 ft | 19 kts | 45° |
| 2026-05-01 15:29 | 34.88422 | 33.63410 | 21 ft | 15 kts | 130° |
| 2026-05-01 15:29 | 34.88259 | 33.63477 | 20 ft | 18 kts | 225° |
| 2026-05-01 15:30 | 34.87636 | 33.62715 | 22 ft | 119 kts | 225° |
| 2026-05-01 15:31 | 34.84553 | 33.58834 | 1812 ft | 169 kts | 228° |
| 2026-05-01 15:31 | 34.82754 | 33.56468 | 2229 ft | 213 kts | 229° |
| 2026-05-01 15:32 | 34.80500 | 33.53536 | 2766 ft | 257 kts | 227° |
| 2026-05-01 15:32 | 34.78006 | 33.50334 | 4220 ft | 263 kts | 228° |
| 2026-05-01 15:33 | 34.74142 | 33.45409 | 6394 ft | 272 kts | 227° |
| 2026-05-01 15:34 | 34.70193 | 33.40368 | 8507 ft | 277 kts | 230° |